createdAt,value
2023-03-14T00:00:11.927Z,6.87
2023-03-14T00:01:11.926Z,6.88
2023-03-14T00:02:11.898Z,6.89
2023-03-14T00:03:11.930Z,6.90
2023-03-14T00:04:11.873Z,6.92
2023-03-14T00:05:11.919Z,6.95
2023-03-14T00:06:11.850Z,6.96
2023-03-14T00:07:11.899Z,6.98
2023-03-14T00:08:11.859Z,7.01
2023-03-14T00:09:11.872Z,7.03
2023-03-14T00:10:12.023Z,7.05
2023-03-14T00:11:11.793Z,7.06
2023-03-14T00:12:11.894Z,7.06
2023-03-14T00:13:11.798Z,7.04
2023-03-14T00:14:11.763Z,7.03
2023-03-14T00:15:11.783Z,7.03
2023-03-14T00:16:11.794Z,7.01
2023-03-14T00:17:11.777Z,6.98
2023-03-14T00:18:11.736Z,6.95
2023-03-14T00:19:11.715Z,6.94
2023-03-14T00:20:11.748Z,6.92
2023-03-14T00:21:11.777Z,6.90
2023-03-14T00:22:11.729Z,6.86
2023-03-14T00:23:11.667Z,6.82
2023-03-14T00:24:11.671Z,6.77
2023-03-14T00:25:11.666Z,6.71
2023-03-14T00:26:11.675Z,6.67
2023-03-14T00:27:11.655Z,6.64
2023-03-14T00:28:11.621Z,6.60
2023-03-14T00:29:11.663Z,6.56
2023-03-14T00:30:11.601Z,6.52
2023-03-14T00:31:11.668Z,6.49
2023-03-14T00:32:11.664Z,6.48
2023-03-14T00:33:11.569Z,6.48
2023-03-14T00:34:11.577Z,6.47
2023-03-14T00:35:11.568Z,6.45
2023-03-14T00:36:11.585Z,6.42
2023-03-14T00:37:11.527Z,6.39
2023-03-14T00:38:11.630Z,6.37
2023-03-14T00:39:11.506Z,6.35
2023-03-14T00:40:11.542Z,6.33
2023-03-14T00:41:11.514Z,6.32
2023-03-14T00:42:11.490Z,6.31
2023-03-14T00:43:11.482Z,6.31
2023-03-14T00:44:11.503Z,6.31
2023-03-14T00:45:11.450Z,6.32
2023-03-14T00:46:11.531Z,6.33
2023-03-14T00:47:11.491Z,6.33
2023-03-14T00:48:11.419Z,6.33
2023-03-14T00:49:11.423Z,6.32
2023-03-14T00:50:11.456Z,6.31
2023-03-14T00:51:11.406Z,6.31
2023-03-14T00:52:11.387Z,6.32
2023-03-14T00:53:11.371Z,6.31
2023-03-14T00:54:11.371Z,6.29
2023-03-14T00:55:11.374Z,6.28
2023-03-14T00:56:11.389Z,6.28
2023-03-14T00:57:11.364Z,6.30
2023-03-14T00:58:11.342Z,6.30
2023-03-14T00:59:11.305Z,6.30
2023-03-14T01:00:11.305Z,6.30
2023-03-14T01:01:11.306Z,6.31
2023-03-14T01:02:11.384Z,6.30
2023-03-14T01:03:11.408Z,6.28
2023-03-14T01:04:11.272Z,6.27
2023-03-14T01:05:11.359Z,6.26
2023-03-14T01:06:11.257Z,6.26
2023-03-14T01:07:11.242Z,6.27
2023-03-14T01:08:11.243Z,6.27
2023-03-14T01:09:11.250Z,6.27
2023-03-14T01:10:11.210Z,6.27
2023-03-14T01:11:11.231Z,6.28
2023-03-14T01:12:11.216Z,6.29
2023-03-14T01:13:11.212Z,6.30
2023-03-14T01:14:11.214Z,6.29
2023-03-14T01:15:11.153Z,6.30
2023-03-14T01:16:11.225Z,6.31
2023-03-14T01:17:11.133Z,6.31
2023-03-14T01:18:11.153Z,6.30
2023-03-14T01:19:11.129Z,6.29
2023-03-14T01:20:11.155Z,6.28
2023-03-14T01:21:11.108Z,6.27
2023-03-14T01:22:11.111Z,6.24
2023-03-14T01:23:11.076Z,6.22
2023-03-14T01:24:11.075Z,6.20
2023-03-14T01:25:11.073Z,6.17
2023-03-14T01:26:11.060Z,6.16
2023-03-14T01:27:11.051Z,6.17
2023-03-14T01:28:12.609Z,6.18
2023-03-14T01:29:11.105Z,6.19
2023-03-14T01:30:11.088Z,6.17
2023-03-14T01:31:11.185Z,6.16
2023-03-14T01:32:10.986Z,6.15
2023-03-14T01:33:10.984Z,6.15
2023-03-14T01:34:11.000Z,6.15
2023-03-14T01:35:11.109Z,6.16
2023-03-14T01:36:11.037Z,6.16
2023-03-14T01:37:10.934Z,6.15
2023-03-14T01:38:11.003Z,6.13
2023-03-14T01:39:10.932Z,6.12
2023-03-14T01:40:11.060Z,6.11
2023-03-14T01:41:10.947Z,6.10
2023-03-14T01:42:10.886Z,6.09
2023-03-14T01:43:15.714Z,6.07
2023-03-14T01:44:10.926Z,6.05
2023-03-14T01:45:10.895Z,6.05
2023-03-14T01:46:10.957Z,6.06
2023-03-14T01:47:10.834Z,6.08
2023-03-14T01:48:10.865Z,6.08
2023-03-14T01:49:10.844Z,6.07
2023-03-14T01:50:10.826Z,6.06
2023-03-14T01:51:10.875Z,6.06
2023-03-14T01:52:10.824Z,6.07
2023-03-14T01:53:10.789Z,6.09
2023-03-14T01:54:10.809Z,6.09
2023-03-14T01:55:10.784Z,6.09
2023-03-14T01:56:10.810Z,6.07
2023-03-14T01:57:10.736Z,6.07
2023-03-14T01:58:10.772Z,6.08
2023-03-14T01:59:10.739Z,6.08
2023-03-14T02:00:10.770Z,6.09
2023-03-14T02:01:10.800Z,6.10
2023-03-14T02:02:10.706Z,6.12
2023-03-14T02:03:10.727Z,6.13
2023-03-14T02:04:10.676Z,6.13
2023-03-14T02:05:10.674Z,6.12
2023-03-14T02:06:10.736Z,6.13
2023-03-14T02:07:10.646Z,6.13
2023-03-14T02:08:10.671Z,6.13
2023-03-14T02:09:10.733Z,6.13
2023-03-14T02:10:10.627Z,6.13
2023-03-14T02:11:10.612Z,6.13
2023-03-14T02:12:10.592Z,6.14
2023-03-14T02:13:10.624Z,6.15
2023-03-14T02:14:10.569Z,6.16
2023-03-14T02:15:10.638Z,6.17
2023-03-14T02:16:10.593Z,6.18
2023-03-14T02:17:10.650Z,6.20
2023-03-14T02:18:10.550Z,6.23
2023-03-14T02:19:10.515Z,6.27
2023-03-14T02:20:10.515Z,6.32
2023-03-14T02:21:10.526Z,6.35
2023-03-14T02:22:10.497Z,6.38
2023-03-14T02:23:10.487Z,6.38
2023-03-14T02:24:10.514Z,6.38
2023-03-14T02:25:10.476Z,6.36
2023-03-14T02:26:10.442Z,6.36
2023-03-14T02:27:10.438Z,6.36
2023-03-14T02:28:10.418Z,6.36
2023-03-14T02:29:10.442Z,6.36
2023-03-14T02:30:10.467Z,6.34
2023-03-14T02:31:10.401Z,6.32
2023-03-14T02:32:10.378Z,6.31
2023-03-14T02:33:10.461Z,6.33
2023-03-14T02:34:10.377Z,6.34
2023-03-14T02:35:10.436Z,6.35
2023-03-14T02:36:10.444Z,6.36
2023-03-14T02:37:10.336Z,6.37
2023-03-14T02:38:10.373Z,6.39
2023-03-14T02:39:10.320Z,6.41
2023-03-14T02:40:10.380Z,6.43
2023-03-14T02:41:10.304Z,6.44
2023-03-14T02:42:10.309Z,6.44
2023-03-14T02:43:10.328Z,6.44
2023-03-14T02:44:10.268Z,6.44
2023-03-14T02:45:10.321Z,6.46
2023-03-14T02:46:10.296Z,6.47
2023-03-14T02:47:10.264Z,6.46
2023-03-14T02:48:10.239Z,6.44
2023-03-14T02:49:10.224Z,6.41
2023-03-14T02:50:10.226Z,6.38
2023-03-14T02:51:10.177Z,6.37
2023-03-14T02:52:10.192Z,6.35
2023-03-14T02:53:10.211Z,6.34
2023-03-14T02:54:10.201Z,6.33
2023-03-14T02:55:10.159Z,6.32
2023-03-14T02:56:10.180Z,6.33
2023-03-14T02:57:10.205Z,6.34
2023-03-14T02:58:10.194Z,6.33
2023-03-14T02:59:10.143Z,6.30
2023-03-14T03:00:10.122Z,6.29
2023-03-14T03:01:10.216Z,6.28
2023-03-14T03:02:10.106Z,6.27
2023-03-14T03:03:10.155Z,6.26
2023-03-14T03:04:10.180Z,6.25
2023-03-14T03:05:10.041Z,6.25
2023-03-14T03:06:10.155Z,6.24
2023-03-14T03:07:10.106Z,6.23
2023-03-14T03:08:10.057Z,6.23
2023-03-14T03:09:10.050Z,6.22
2023-03-14T03:10:10.058Z,6.20
2023-03-14T03:11:09.988Z,6.19
2023-03-14T03:12:09.979Z,6.17
2023-03-14T03:13:09.979Z,6.15
2023-03-14T03:14:09.968Z,6.13
2023-03-14T03:15:09.969Z,6.12
2023-03-14T03:16:09.980Z,6.11
2023-03-14T03:17:09.937Z,6.10
2023-03-14T03:18:09.942Z,6.08
2023-03-14T03:19:09.913Z,6.07
2023-03-14T03:20:09.938Z,6.07
2023-03-14T03:21:09.888Z,6.07
2023-03-14T03:22:09.900Z,6.06
2023-03-14T03:23:09.885Z,6.04
2023-03-14T03:24:09.878Z,6.03
2023-03-14T03:25:09.893Z,6.02
2023-03-14T03:26:09.860Z,6.01
2023-03-14T03:27:09.826Z,6.00
2023-03-14T03:28:09.856Z,5.98
2023-03-14T03:29:09.841Z,5.97
2023-03-14T03:30:09.823Z,5.96
2023-03-14T03:31:09.910Z,5.96
2023-03-14T03:32:09.797Z,5.95
2023-03-14T03:33:09.787Z,5.94
2023-03-14T03:34:09.778Z,5.94
2023-03-14T03:35:09.945Z,5.93
2023-03-14T03:36:09.827Z,5.93
2023-03-14T03:37:09.760Z,5.93
2023-03-14T03:38:09.744Z,5.92
2023-03-14T03:39:09.739Z,5.90
2023-03-14T03:40:09.708Z,5.89
2023-03-14T03:41:11.038Z,5.90
2023-03-14T03:42:09.698Z,5.91
2023-03-14T03:43:09.704Z,5.93
2023-03-14T03:44:09.671Z,5.95
2023-03-14T03:45:09.660Z,5.97
2023-03-14T03:46:09.868Z,5.96
2023-03-14T03:47:09.677Z,5.95
2023-03-14T03:48:09.626Z,5.94
2023-03-14T03:49:09.656Z,5.93
2023-03-14T03:50:09.614Z,5.93
2023-03-14T03:51:09.640Z,5.93
2023-03-14T03:52:09.605Z,5.93
2023-03-14T03:53:10.196Z,5.93
2023-03-14T03:54:09.579Z,5.94
2023-03-14T03:55:09.734Z,5.95
2023-03-14T03:56:09.548Z,5.95
2023-03-14T03:57:09.568Z,5.95
2023-03-14T03:58:09.529Z,5.95
2023-03-14T03:59:09.552Z,5.95
2023-03-14T04:00:09.505Z,5.96
2023-03-14T04:01:09.553Z,5.96
2023-03-14T04:02:09.534Z,5.96
2023-03-14T04:03:09.502Z,5.97
2023-03-14T04:04:09.476Z,5.97
2023-03-14T04:05:09.464Z,5.98
2023-03-14T04:06:09.495Z,5.99
2023-03-14T04:07:09.482Z,6.00
2023-03-14T04:08:09.443Z,6.01
2023-03-14T04:09:09.458Z,6.02
2023-03-14T04:10:09.443Z,6.03
2023-03-14T04:11:09.427Z,6.02
2023-03-14T04:12:09.380Z,6.02
2023-03-14T04:13:09.380Z,6.02
2023-03-14T04:14:09.376Z,6.03
2023-03-14T04:15:09.390Z,6.03
2023-03-14T04:16:09.389Z,6.04
2023-03-14T04:17:09.351Z,6.04
2023-03-14T04:18:09.324Z,6.04
2023-03-14T04:19:09.326Z,6.04
2023-03-14T04:20:09.338Z,6.04
2023-03-14T04:21:09.295Z,6.04
2023-03-14T04:22:09.292Z,6.04
2023-03-14T04:23:09.288Z,6.03
2023-03-14T04:24:09.283Z,6.03
2023-03-14T04:25:09.360Z,6.04
2023-03-14T04:26:09.294Z,6.04
2023-03-14T04:27:09.262Z,6.04
2023-03-14T04:28:09.222Z,6.04
2023-03-14T04:29:10.175Z,6.03
2023-03-14T04:30:09.207Z,6.02
2023-03-14T04:31:09.313Z,6.01
2023-03-14T04:32:09.241Z,6.00
2023-03-14T04:33:09.190Z,5.99
2023-03-14T04:34:09.190Z,5.98
2023-03-14T04:35:09.161Z,5.97
2023-03-14T04:36:09.224Z,5.96
2023-03-14T04:37:09.145Z,5.95
2023-03-14T04:38:09.147Z,5.94
2023-03-14T04:39:09.141Z,5.94
2023-03-14T04:40:09.108Z,5.94
2023-03-14T04:41:09.147Z,5.94
2023-03-14T04:42:09.113Z,5.94
2023-03-14T04:43:09.084Z,5.93
2023-03-14T04:44:09.068Z,5.92
2023-03-14T04:45:09.058Z,5.91
2023-03-14T04:46:09.047Z,5.89
2023-03-14T04:47:09.064Z,5.87
2023-03-14T04:48:09.044Z,5.85
2023-03-14T04:49:09.067Z,5.84
2023-03-14T04:50:09.025Z,5.84
2023-03-14T04:51:09.013Z,5.84
2023-03-14T04:52:09.024Z,5.84
2023-03-14T04:53:08.979Z,5.84
2023-03-14T04:54:08.984Z,5.84
2023-03-14T04:55:08.954Z,5.83
2023-03-14T04:56:08.954Z,5.82
2023-03-14T04:57:08.968Z,5.81
2023-03-14T04:58:08.930Z,5.79
2023-03-14T04:59:08.935Z,5.77
2023-03-14T05:00:08.913Z,5.75
2023-03-14T05:01:08.921Z,5.74
2023-03-14T05:02:08.965Z,5.73
2023-03-14T05:03:08.984Z,5.72
2023-03-14T05:04:08.885Z,5.71
2023-03-14T05:05:08.879Z,5.68
2023-03-14T05:06:08.858Z,5.66
2023-03-14T05:07:08.917Z,5.64
2023-03-14T05:08:08.853Z,5.64
2023-03-14T05:09:08.776Z,5.64
2023-03-14T05:10:08.772Z,5.64
2023-03-14T05:11:08.741Z,5.65
2023-03-14T05:12:08.768Z,5.65
2023-03-14T05:13:08.741Z,5.66
2023-03-14T05:14:08.710Z,5.65
2023-03-14T05:15:08.703Z,5.64
2023-03-14T05:16:08.792Z,5.63
2023-03-14T05:17:08.811Z,5.63
2023-03-14T05:18:08.669Z,5.62
2023-03-14T05:19:08.666Z,5.62
2023-03-14T05:20:08.660Z,5.62
2023-03-14T05:21:08.644Z,5.62
2023-03-14T05:22:08.705Z,5.63
2023-03-14T05:23:08.621Z,5.63
2023-03-14T05:24:08.631Z,5.62
2023-03-14T05:25:08.613Z,5.62
2023-03-14T05:26:08.600Z,5.60
2023-03-14T05:27:08.584Z,5.58
2023-03-14T05:28:08.645Z,5.56
2023-03-14T05:29:08.581Z,5.54
2023-03-14T05:30:08.598Z,5.53
2023-03-14T05:31:08.714Z,5.53
2023-03-14T05:32:08.539Z,5.53
2023-03-14T05:33:08.527Z,5.53
2023-03-14T05:34:08.537Z,5.53
2023-03-14T05:35:08.526Z,5.53
2023-03-14T05:36:08.511Z,5.53
2023-03-14T05:37:08.504Z,5.52
2023-03-14T05:38:08.578Z,5.52
2023-03-14T05:39:08.504Z,5.51
2023-03-14T05:40:08.453Z,5.50
2023-03-14T05:41:08.445Z,5.50
2023-03-14T05:42:08.439Z,5.49
2023-03-14T05:43:08.448Z,5.49
2023-03-14T05:44:08.431Z,5.48
2023-03-14T05:45:08.480Z,5.48
2023-03-14T05:46:08.428Z,5.46
2023-03-14T05:47:08.437Z,5.45
2023-03-14T05:48:08.378Z,5.43
2023-03-14T05:49:08.395Z,5.43
2023-03-14T05:50:08.374Z,5.44
2023-03-14T05:51:08.415Z,5.45
2023-03-14T05:52:08.359Z,5.45
2023-03-14T05:53:08.323Z,5.46
2023-03-14T05:54:08.437Z,5.46
2023-03-14T05:55:08.419Z,5.46
2023-03-14T05:56:08.316Z,5.46
2023-03-14T05:57:08.466Z,5.45
2023-03-14T05:58:08.287Z,5.45
2023-03-14T05:59:08.285Z,5.45
2023-03-14T06:00:08.295Z,5.43
2023-03-14T06:01:08.294Z,5.42
2023-03-14T06:02:08.317Z,5.40
2023-03-14T06:03:08.329Z,5.39
2023-03-14T06:04:08.224Z,5.40
2023-03-14T06:05:08.256Z,5.41
2023-03-14T06:06:08.250Z,5.42
2023-03-14T06:07:08.207Z,5.42
2023-03-14T06:08:08.215Z,5.43
2023-03-14T06:09:08.205Z,5.45
2023-03-14T06:10:08.176Z,5.47
2023-03-14T06:11:08.144Z,5.48
2023-03-14T06:12:08.214Z,5.48
2023-03-14T06:13:08.161Z,5.48
2023-03-14T06:14:08.134Z,5.48
2023-03-14T06:15:08.096Z,5.47
2023-03-14T06:16:08.281Z,5.47
2023-03-14T06:17:08.105Z,5.48
2023-03-14T06:18:08.100Z,5.49
2023-03-14T06:19:08.127Z,5.50
2023-03-14T06:20:08.058Z,5.50
2023-03-14T06:21:08.049Z,5.50
2023-03-14T06:22:08.062Z,5.50
2023-03-14T06:23:08.073Z,5.50
2023-03-14T06:24:08.026Z,5.49
2023-03-14T06:25:08.051Z,5.48
2023-03-14T06:26:08.030Z,5.48
2023-03-14T06:27:07.983Z,5.47
2023-03-14T06:28:08.043Z,5.47
2023-03-14T06:29:08.029Z,5.47
2023-03-14T06:30:07.965Z,5.47
2023-03-14T06:31:08.020Z,5.47
2023-03-14T06:32:07.983Z,5.48
2023-03-14T06:33:08.777Z,5.50
2023-03-14T06:34:08.056Z,5.52
2023-03-14T06:35:07.941Z,5.53
2023-03-14T06:36:08.025Z,5.54
2023-03-14T06:37:07.899Z,5.54
2023-03-14T06:38:08.090Z,5.54
2023-03-14T06:39:07.918Z,5.55
2023-03-14T06:40:08.013Z,5.56
2023-03-14T06:41:07.863Z,5.58
2023-03-14T06:42:07.864Z,5.61
2023-03-14T06:43:07.869Z,5.62
2023-03-14T06:44:07.834Z,5.63
2023-03-14T06:45:07.820Z,5.65
2023-03-14T06:46:07.890Z,5.68
2023-03-14T06:47:07.781Z,5.71
2023-03-14T06:48:07.793Z,5.73
2023-03-14T06:49:07.810Z,5.74
2023-03-14T06:50:07.828Z,5.76
2023-03-14T06:51:07.762Z,5.77
2023-03-14T06:52:07.726Z,5.77
2023-03-14T06:53:07.797Z,5.77
2023-03-14T06:54:07.736Z,5.77
2023-03-14T06:55:07.715Z,5.78
2023-03-14T06:56:07.741Z,5.80
2023-03-14T06:57:07.784Z,5.81
2023-03-14T06:58:07.716Z,5.82
2023-03-14T06:59:07.691Z,5.83
2023-03-14T07:00:07.664Z,5.83
2023-03-14T07:01:07.680Z,5.84
2023-03-14T07:02:07.704Z,5.85
2023-03-14T07:03:07.654Z,5.87
2023-03-14T07:04:07.692Z,5.90
2023-03-14T07:05:07.654Z,5.93
2023-03-14T07:06:07.658Z,5.96
2023-03-14T07:07:07.596Z,5.97
2023-03-14T07:08:07.608Z,5.97
2023-03-14T07:09:07.619Z,5.96
2023-03-14T07:10:07.586Z,5.94
2023-03-14T07:11:07.568Z,5.92
2023-03-14T07:12:07.534Z,5.91
2023-03-14T07:13:07.571Z,5.92
2023-03-14T07:14:07.528Z,5.93
2023-03-14T07:15:20.045Z,5.94
2023-03-14T07:16:07.579Z,5.95
2023-03-14T07:17:07.502Z,5.96
2023-03-14T07:18:07.494Z,5.97
2023-03-14T07:19:07.515Z,5.97
2023-03-14T07:20:08.668Z,5.97
2023-03-14T07:21:07.717Z,5.97
2023-03-14T07:22:07.458Z,5.98
2023-03-14T07:23:07.570Z,5.99
2023-03-14T07:24:07.466Z,5.99
2023-03-14T07:25:07.464Z,6.00
2023-03-14T07:26:07.452Z,6.02
2023-03-14T07:27:08.715Z,6.05
2023-03-14T07:28:07.434Z,6.10
2023-03-14T07:29:07.466Z,6.13
2023-03-14T07:30:07.446Z,6.16
2023-03-14T07:31:07.442Z,6.17
2023-03-14T07:32:07.378Z,6.19
2023-03-14T07:33:08.739Z,6.19
2023-03-14T07:34:07.360Z,6.20
2023-03-14T07:35:07.344Z,6.23
2023-03-14T07:36:07.359Z,6.26
2023-03-14T07:37:07.313Z,6.29
2023-03-14T07:38:07.296Z,6.31
2023-03-14T07:39:07.260Z,6.34
2023-03-14T07:40:07.287Z,6.38
2023-03-14T07:41:07.292Z,6.40
2023-03-14T07:42:07.268Z,6.40
2023-03-14T07:43:07.244Z,6.41
2023-03-14T07:44:07.303Z,6.42
2023-03-14T07:45:07.869Z,6.44
2023-03-14T07:46:07.282Z,6.45
2023-03-14T07:47:07.211Z,6.46
2023-03-14T07:48:07.193Z,6.50
2023-03-14T07:49:07.224Z,6.54
2023-03-14T07:50:07.212Z,6.57
2023-03-14T07:51:07.199Z,6.60
2023-03-14T07:52:07.190Z,6.63
2023-03-14T07:53:07.191Z,6.66
2023-03-14T07:54:07.147Z,6.69
2023-03-14T07:55:07.132Z,6.70
2023-03-14T07:56:07.591Z,6.70
2023-03-14T07:57:07.109Z,6.70
2023-03-14T07:58:07.107Z,6.68
2023-03-14T07:59:07.127Z,6.66
2023-03-14T08:00:07.260Z,6.66
2023-03-14T08:01:07.401Z,6.68
2023-03-14T08:02:07.069Z,6.71
2023-03-14T08:03:07.139Z,6.72
2023-03-14T08:04:07.067Z,6.73
2023-03-14T08:05:07.018Z,6.75
2023-03-14T08:06:07.037Z,6.77
2023-03-14T08:07:07.005Z,6.82
2023-03-14T08:08:07.025Z,6.85
2023-03-14T08:09:06.990Z,6.85
2023-03-14T08:10:06.981Z,6.86
2023-03-14T08:11:06.970Z,6.86
2023-03-14T08:12:07.001Z,6.87
2023-03-14T08:13:06.941Z,6.92
2023-03-14T08:14:06.937Z,6.99
2023-03-14T08:15:06.955Z,7.08
2023-03-14T08:16:07.030Z,7.16
2023-03-14T08:17:06.909Z,7.22
2023-03-14T08:18:06.898Z,7.23
2023-03-14T08:19:06.885Z,7.19
2023-03-14T08:20:06.885Z,7.13
2023-03-14T08:21:06.865Z,7.07
2023-03-14T08:22:06.861Z,7.03
2023-03-14T08:23:06.847Z,7.00
2023-03-14T08:24:06.851Z,6.96
2023-03-14T08:25:06.849Z,6.92
2023-03-14T08:26:06.864Z,6.88
2023-03-14T08:27:08.763Z,6.86
2023-03-14T08:28:06.786Z,6.85
2023-03-14T08:29:06.782Z,6.85
2023-03-14T08:30:06.776Z,6.86
2023-03-14T08:31:06.919Z,6.92
2023-03-14T08:32:06.902Z,7.02
2023-03-14T08:33:06.860Z,7.13
2023-03-14T08:34:06.747Z,7.31
2023-03-14T08:35:06.720Z,7.52
2023-03-14T08:36:06.722Z,7.70
2023-03-14T08:37:16.278Z,7.79
2023-03-14T08:38:06.703Z,7.82
2023-03-14T08:39:06.770Z,7.82
2023-03-14T08:40:07.396Z,7.81
2023-03-14T08:41:06.656Z,7.81
2023-03-14T08:42:06.678Z,7.82
2023-03-14T08:43:06.640Z,7.84
2023-03-14T08:44:06.673Z,7.89
2023-03-14T08:45:06.681Z,7.88
2023-03-14T08:46:06.616Z,7.85
2023-03-14T08:47:06.638Z,7.84
2023-03-14T08:48:06.601Z,7.84
2023-03-14T08:49:06.584Z,7.84
2023-03-14T08:50:06.585Z,7.88
2023-03-14T08:51:06.533Z,7.96
2023-03-14T08:52:06.581Z,8.06
2023-03-14T08:53:06.569Z,8.14
2023-03-14T08:54:06.510Z,8.19
2023-03-14T08:55:06.523Z,8.20
2023-03-14T08:56:06.593Z,8.21
2023-03-14T08:57:06.497Z,8.18
2023-03-14T08:58:06.502Z,8.16
2023-03-14T08:59:06.466Z,8.21
2023-03-14T09:00:06.493Z,8.27
2023-03-14T09:01:06.498Z,8.34
2023-03-14T09:02:06.443Z,8.39
2023-03-14T09:03:06.486Z,8.44
2023-03-14T09:04:06.462Z,8.46
2023-03-14T09:05:06.411Z,8.43
2023-03-14T09:06:06.442Z,8.42
2023-03-14T09:07:06.390Z,8.47
2023-03-14T09:08:06.406Z,8.56
2023-03-14T09:09:06.386Z,8.64
2023-03-14T09:10:06.477Z,8.72
2023-03-14T09:11:06.365Z,8.81
2023-03-14T09:12:06.349Z,8.89
2023-03-14T09:13:06.397Z,9.00
2023-03-14T09:14:06.363Z,9.16
2023-03-14T09:15:06.393Z,9.30
2023-03-14T09:16:06.437Z,9.41
2023-03-14T09:17:06.324Z,9.46
2023-03-14T09:18:06.378Z,9.50
2023-03-14T09:19:06.313Z,9.52
2023-03-14T09:20:06.306Z,9.44
2023-03-14T09:21:06.300Z,9.31
2023-03-14T09:22:06.258Z,9.23
2023-03-14T09:23:06.347Z,9.20
2023-03-14T09:24:06.376Z,9.17
2023-03-14T09:25:06.368Z,9.11
2023-03-14T09:26:06.216Z,9.06
2023-03-14T09:27:06.255Z,9.04
2023-03-14T09:28:06.366Z,9.04
2023-03-14T09:29:06.432Z,9.06
2023-03-14T09:30:06.179Z,9.09
2023-03-14T09:31:06.217Z,9.15
2023-03-14T09:32:06.299Z,9.19
2023-03-14T09:33:06.156Z,9.20
2023-03-14T09:34:06.178Z,9.20
2023-03-14T09:35:06.121Z,9.24
2023-03-14T09:36:06.124Z,9.28
2023-03-14T09:37:06.143Z,9.32
2023-03-14T09:38:06.113Z,9.35
2023-03-14T09:39:06.098Z,9.37
2023-03-14T09:40:07.232Z,9.38
2023-03-14T09:41:06.096Z,9.40
2023-03-14T09:42:06.058Z,9.45
2023-03-14T09:43:06.068Z,9.50
2023-03-14T09:44:06.079Z,9.55
2023-03-14T09:45:06.017Z,9.56
2023-03-14T09:46:06.056Z,9.58
2023-03-14T09:47:06.100Z,9.67
2023-03-14T09:48:05.983Z,9.84
2023-03-14T09:49:05.985Z,10.02
2023-03-14T09:50:05.978Z,10.14
2023-03-14T09:51:05.994Z,10.19
2023-03-14T09:52:05.982Z,10.16
2023-03-14T09:53:05.951Z,10.10
2023-03-14T09:54:05.945Z,10.03
2023-03-14T09:55:05.899Z,10.06
2023-03-14T09:56:05.909Z,10.13
2023-03-14T09:57:05.917Z,10.14
2023-03-14T09:58:05.926Z,10.13
2023-03-14T09:59:05.873Z,10.09
2023-03-14T10:00:05.859Z,10.04
2023-03-14T10:01:05.893Z,10.07
2023-03-14T10:02:05.831Z,10.11
2023-03-14T10:03:05.853Z,10.13
2023-03-14T10:04:05.827Z,10.14
2023-03-14T10:05:07.122Z,10.13
2023-03-14T10:06:05.789Z,10.13
2023-03-14T10:07:05.784Z,10.11
2023-03-14T10:08:05.789Z,10.06
2023-03-14T10:09:05.748Z,10.01
2023-03-14T10:10:05.798Z,9.98
2023-03-14T10:11:05.747Z,9.92
2023-03-14T10:12:09.304Z,9.88
2023-03-14T10:13:05.799Z,9.88
2023-03-14T10:14:05.740Z,9.84
2023-03-14T10:15:05.670Z,9.76
2023-03-14T10:16:05.685Z,9.69
2023-03-14T10:17:05.723Z,9.65
2023-03-14T10:18:05.670Z,9.63
2023-03-14T10:19:05.724Z,9.63
2023-03-14T10:20:05.646Z,9.67
2023-03-14T10:21:05.629Z,9.72
2023-03-14T10:22:05.616Z,9.77
2023-03-14T10:23:05.649Z,9.79
2023-03-14T10:24:05.638Z,9.79
2023-03-14T10:25:05.592Z,9.77
2023-03-14T10:26:05.653Z,9.74
2023-03-14T10:27:05.613Z,9.73
2023-03-14T10:28:05.693Z,9.77
2023-03-14T10:29:05.556Z,9.86
2023-03-14T10:30:05.559Z,9.95
2023-03-14T10:31:05.563Z,10.00
2023-03-14T10:32:05.555Z,10.01
2023-03-14T10:33:05.507Z,10.01
2023-03-14T10:34:05.544Z,10.03
2023-03-14T10:35:05.513Z,10.10
2023-03-14T10:36:05.682Z,10.21
2023-03-14T10:37:05.860Z,10.32
2023-03-14T10:38:05.473Z,10.44
2023-03-14T10:39:05.503Z,10.52
2023-03-14T10:40:05.484Z,10.54
2023-03-14T10:41:05.469Z,10.57
2023-03-14T10:42:05.451Z,10.65
2023-03-14T10:43:05.412Z,10.77
2023-03-14T10:44:05.404Z,10.89
2023-03-14T10:45:05.440Z,10.91
2023-03-14T10:46:05.416Z,10.89
2023-03-14T10:47:05.371Z,10.85
2023-03-14T10:48:05.370Z,10.78
2023-03-14T10:49:05.392Z,10.67
2023-03-14T10:50:05.351Z,10.62
2023-03-14T10:51:05.341Z,10.67
2023-03-14T10:52:05.349Z,10.76
2023-03-14T10:53:05.344Z,10.78
2023-03-14T10:54:05.330Z,10.79
2023-03-14T10:55:05.349Z,10.84
2023-03-14T10:56:05.300Z,10.86
2023-03-14T10:57:05.313Z,10.84
2023-03-14T10:58:05.262Z,10.80
2023-03-14T10:59:05.262Z,10.74
2023-03-14T11:00:05.235Z,10.71
2023-03-14T11:01:05.268Z,10.72
2023-03-14T11:02:05.266Z,10.70
2023-03-14T11:03:05.219Z,10.65
2023-03-14T11:04:05.268Z,10.62
2023-03-14T11:05:05.257Z,10.62
2023-03-14T11:06:05.207Z,10.61
2023-03-14T11:07:05.289Z,10.58
2023-03-14T11:08:06.961Z,10.56
2023-03-14T11:09:05.150Z,10.56
2023-03-14T11:10:05.172Z,10.54
2023-03-14T11:11:05.137Z,10.55
2023-03-14T11:12:05.197Z,10.59
2023-03-14T11:13:05.122Z,10.65
2023-03-14T11:14:05.126Z,10.76
2023-03-14T11:15:05.144Z,10.86
2023-03-14T11:16:05.357Z,10.92
2023-03-14T11:17:05.071Z,10.91
2023-03-14T11:18:06.466Z,10.86
2023-03-14T11:19:05.042Z,10.83
2023-03-14T11:20:05.101Z,10.81
2023-03-14T11:21:05.103Z,10.83
2023-03-14T11:22:05.066Z,10.88
2023-03-14T11:23:05.053Z,10.93
2023-03-14T11:24:05.027Z,10.99
2023-03-14T11:25:05.023Z,11.00
2023-03-14T11:26:05.004Z,10.91
2023-03-14T11:27:04.975Z,10.77
2023-03-14T11:28:05.015Z,10.61
2023-03-14T11:29:04.973Z,10.50
2023-03-14T11:30:04.958Z,10.44
2023-03-14T11:31:04.982Z,10.40
2023-03-14T11:32:04.916Z,10.36
2023-03-14T11:33:04.992Z,10.33
2023-03-14T11:34:04.903Z,10.31
2023-03-14T11:35:04.951Z,10.32
2023-03-14T11:36:04.939Z,10.32
2023-03-14T11:37:04.881Z,10.33
2023-03-14T11:38:04.985Z,10.36
2023-03-14T11:39:04.894Z,10.38
2023-03-14T11:40:04.853Z,10.38
2023-03-14T11:41:04.864Z,10.38
2023-03-14T11:42:05.844Z,10.42
2023-03-14T11:43:04.806Z,10.49
2023-03-14T11:44:04.771Z,10.56
2023-03-14T11:45:04.781Z,10.59
2023-03-14T11:46:04.843Z,10.60
2023-03-14T11:47:05.008Z,10.58
2023-03-14T11:48:04.763Z,10.52
2023-03-14T11:49:04.791Z,10.46
2023-03-14T11:50:04.770Z,10.40
2023-03-14T11:51:04.776Z,10.35
2023-03-14T11:52:04.725Z,10.30
2023-03-14T11:53:04.730Z,10.25
2023-03-14T11:54:04.665Z,10.20
2023-03-14T11:55:13.523Z,10.15
2023-03-14T11:56:05.243Z,10.07
2023-03-14T11:57:04.632Z,9.98
2023-03-14T11:58:04.628Z,9.91
2023-03-14T11:59:05.067Z,9.88
2023-03-14T12:00:04.597Z,9.85
2023-03-14T12:01:04.586Z,9.81
2023-03-14T12:02:05.077Z,9.77
2023-03-14T12:03:04.594Z,9.77
2023-03-14T12:04:04.684Z,9.76
2023-03-14T12:05:04.840Z,9.76
2023-03-14T12:06:04.543Z,9.74
2023-03-14T12:07:04.553Z,9.67
2023-03-14T12:08:04.542Z,9.59
2023-03-14T12:09:04.502Z,9.55
2023-03-14T12:10:04.510Z,9.53
2023-03-14T12:11:04.477Z,9.51
2023-03-14T12:12:04.505Z,9.47
2023-03-14T12:13:04.512Z,9.38
2023-03-14T12:14:04.475Z,9.26
2023-03-14T12:15:04.454Z,9.16
2023-03-14T12:16:04.496Z,9.09
2023-03-14T12:17:04.440Z,9.03
2023-03-14T12:18:04.417Z,9.00
2023-03-14T12:19:04.430Z,8.97
2023-03-14T12:20:04.389Z,8.91
2023-03-14T12:21:04.371Z,8.82
2023-03-14T12:22:04.361Z,8.73
2023-03-14T12:23:04.394Z,8.65
2023-03-14T12:24:04.367Z,8.53
2023-03-14T12:25:04.350Z,8.38
2023-03-14T12:26:04.325Z,8.26
2023-03-14T12:27:04.333Z,8.19
2023-03-14T12:28:04.355Z,8.14
2023-03-14T12:29:04.318Z,8.09
2023-03-14T12:30:04.822Z,8.07
2023-03-14T12:31:04.286Z,8.09
2023-03-14T12:32:04.296Z,8.11
2023-03-14T12:33:04.345Z,8.12
2023-03-14T12:34:04.248Z,8.11
2023-03-14T12:35:04.247Z,8.08
2023-03-14T12:36:04.285Z,8.07
2023-03-14T12:37:04.262Z,8.08
2023-03-14T12:38:04.197Z,8.09
2023-03-14T12:39:04.201Z,8.14
2023-03-14T12:40:06.040Z,8.20
2023-03-14T12:41:04.185Z,8.24
2023-03-14T12:42:04.169Z,8.23
2023-03-14T12:43:04.163Z,8.22
2023-03-14T12:44:04.175Z,8.22
2023-03-14T12:45:04.346Z,8.20
2023-03-14T12:46:04.235Z,8.16
2023-03-14T12:47:04.118Z,8.14
2023-03-14T12:48:04.106Z,8.12
2023-03-14T12:49:04.143Z,8.08
2023-03-14T12:50:04.124Z,7.97
2023-03-14T12:51:04.069Z,7.85
2023-03-14T12:52:04.080Z,7.76
2023-03-14T12:53:04.070Z,7.68
2023-03-14T12:54:04.047Z,7.59
2023-03-14T12:55:04.077Z,7.53
2023-03-14T12:56:04.039Z,7.51
2023-03-14T12:57:04.025Z,7.50
2023-03-14T12:58:04.041Z,7.50
2023-03-14T12:59:03.999Z,7.49
2023-03-14T13:00:04.030Z,7.48
2023-03-14T13:01:04.023Z,7.50
2023-03-14T13:02:03.980Z,7.53
2023-03-14T13:03:03.972Z,7.55
2023-03-14T13:04:04.039Z,7.53
2023-03-14T13:05:03.942Z,7.50
2023-03-14T13:06:03.920Z,7.47
2023-03-14T13:07:03.906Z,7.42
2023-03-14T13:08:03.917Z,7.40
2023-03-14T13:09:03.905Z,7.38
2023-03-14T13:10:03.888Z,7.35
2023-03-14T13:11:03.873Z,7.33
2023-03-14T13:12:03.869Z,7.30
2023-03-14T13:13:03.900Z,7.27
2023-03-14T13:14:03.842Z,7.25